Time;durP1;ratioP1;P1;durP2;ratioP2;P2;SDS_P1;SDS_P2;PMS_P1;PMS_P2;Temp;Humidity;BMP_temperature;BMP_pressure;BME280_temperature;BME280_humidity;BME280_pressure;Samples;Min_cycle;Max_cycle;Signal;HPM_P1;HPM_P2
2022/06/17 00:00:46;;;;;;;9.30;6.93;;;16.50;99.90;;;;;;5088220;28;20435;-89
2022/06/17 00:03:23;;;;;;;8.68;6.47;;;16.50;99.90;;;;;;5074384;28;21186;-89
2022/06/17 00:05:59;;;;;;;8.52;6.78;;;16.50;99.90;;;;;;5088679;28;20040;-89
2022/06/17 00:08:35;;;;;;;9.68;6.80;;;16.50;99.90;;;;;;5088798;28;20697;-89
2022/06/17 00:12:04;;;;;;;11.18;6.25;;;16.40;99.90;;;;;;5095446;28;20048;-89
2022/06/17 00:14:33;;;;;;;7.90;6.38;;;16.40;99.90;;;;;;5085870;28;20047;-89
2022/06/17 00:17:37;;;;;;;9.38;6.38;;;16.40;99.90;;;;;;5101603;28;20043;-89
2022/06/17 00:20:12;;;;;;;7.45;6.10;;;16.40;99.90;;;;;;5069004;28;20043;-90
2022/06/17 00:23:11;;;;;;;10.05;7.13;;;16.30;99.90;;;;;;5105482;28;20526;-88
2022/06/17 00:25:56;;;;;;;7.75;6.80;;;16.30;99.90;;;;;;5087302;28;20044;-88
2022/06/17 00:33:04;;;;;;;9.23;7.05;;;16.20;99.90;;;;;;5097035;28;20419;-89
2022/06/17 00:35:41;;;;;;;9.68;7.38;;;16.20;99.90;;;;;;5103677;28;20054;-89
2022/06/17 00:38:26;;;;;;;11.32;7.63;;;16.10;99.90;;;;;;5087073;28;20052;-89
2022/06/17 00:40:56;;;;;;;8.88;6.70;;;16.10;99.90;;;;;;5106395;28;20040;-89
2022/06/17 00:43:53;;;;;;;9.75;7.15;;;16.10;99.90;;;;;;5104619;28;20081;-88
2022/06/17 00:46:30;;;;;;;8.85;7.28;;;16.10;99.90;;;;;;5101556;28;20100;-89
2022/06/17 00:49:18;;;;;;;8.35;7.50;;;16.10;99.90;;;;;;5085212;28;20495;-89
2022/06/17 00:52:05;;;;;;;9.02;7.95;;;16.00;99.90;;;;;;5102421;28;20488;-89
2022/06/17 00:55:19;;;;;;;8.52;7.63;;;16.00;99.90;;;;;;5101190;28;20544;-89
2022/06/17 00:58:10;;;;;;;15.18;7.50;;;16.00;99.90;;;;;;5078897;28;20040;-89
2022/06/17 01:01:14;;;;;;;10.35;7.53;;;16.00;99.90;;;;;;5101709;28;20098;-88
2022/06/17 01:04:20;;;;;;;10.85;8.32;;;15.90;99.90;;;;;;5076622;28;20124;-89
2022/06/17 01:06:58;;;;;;;12.48;8.55;;;15.90;99.90;;;;;;5106103;28;20040;-89
2022/06/17 01:12:48;;;;;;;10.68;8.10;;;15.90;99.90;;;;;;5133513;27;20044;-89
2022/06/17 01:15:18;;;;;;;11.43;7.95;;;15.90;99.90;;;;;;5100099;28;20060;-90
2022/06/17 01:17:53;;;;;;;8.57;7.78;;;15.80;99.90;;;;;;5092606;28;20045;-89
2022/06/17 01:21:09;;;;;;;9.93;7.70;;;15.80;99.90;;;;;;5076245;28;20040;-90
2022/06/17 01:23:44;;;;;;;11.60;8.02;;;15.80;99.90;;;;;;5012589;28;20051;-89
2022/06/17 01:29:24;;;;;;;9.90;8.35;;;15.80;99.90;;;;;;5100373;28;20071;-89
2022/06/17 01:32:19;;;;;;;13.75;8.60;;;15.70;99.90;;;;;;5091555;28;20032;-89
2022/06/17 01:34:54;;;;;;;10.63;8.40;;;15.80;99.90;;;;;;5088743;28;20511;-89
2022/06/17 01:37:20;;;;;;;10.13;8.50;;;15.70;99.90;;;;;;5074371;28;20036;-87
2022/06/17 01:39:54;;;;;;;9.95;8.20;;;15.70;99.90;;;;;;5088143;28;20036;-90
2022/06/17 01:42:20;;;;;;;12.43;8.82;;;15.70;99.90;;;;;;5106128;28;20471;-89
2022/06/17 01:45:01;;;;;;;10.70;8.60;;;15.70;99.90;;;;;;5109175;28;20530;-89
2022/06/17 01:47:37;;;;;;;13.13;8.52;;;15.70;99.90;;;;;;5106532;28;20043;-90
2022/06/17 01:50:38;;;;;;;10.98;8.57;;;15.60;99.90;;;;;;5091840;28;20093;-89
2022/06/17 01:53:18;;;;;;;9.48;8.32;;;15.60;99.90;;;;;;5105712;28;20052;-90
2022/06/17 01:56:11;;;;;;;9.57;8.13;;;15.60;99.90;;;;;;5090553;28;20051;-89
2022/06/17 01:58:43;;;;;;;10.45;8.43;;;15.60;99.90;;;;;;5105476;28;20043;-89
2022/06/17 02:01:35;;;;;;;10.02;8.75;;;15.60;99.90;;;;;;5091845;28;20548;-89
2022/06/17 02:04:17;;;;;;;9.75;8.75;;;15.60;99.90;;;;;;5108076;28;21498;-90
2022/06/17 02:07:39;;;;;;;11.45;8.63;;;15.60;99.90;;;;;;5103761;28;20055;-90
2022/06/17 02:10:22;;;;;;;11.77;9.65;;;15.60;99.90;;;;;;5069340;28;20039;-90
2022/06/17 02:13:07;;;;;;;10.50;8.85;;;15.60;99.90;;;;;;5082343;28;20040;-89
2022/06/17 02:15:59;;;;;;;10.65;9.25;;;15.60;99.90;;;;;;5086344;28;20467;-89
2022/06/17 02:19:21;;;;;;;12.77;9.50;;;15.60;99.90;;;;;;5091807;28;20075;-89
2022/06/17 02:22:24;;;;;;;13.38;9.30;;;15.50;99.90;;;;;;5107776;28;20040;-90
2022/06/17 02:24:58;;;;;;;10.50;9.40;;;15.50;99.90;;;;;;5093475;28;20079;-90
2022/06/17 02:27:56;;;;;;;9.35;8.45;;;15.40;99.90;;;;;;5097036;28;20067;-89
2022/06/17 02:30:24;;;;;;;11.38;9.55;;;15.50;99.90;;;;;;5101464;28;20040;-89
2022/06/17 02:36:41;;;;;;;10.18;9.07;;;15.40;99.90;;;;;;5108599;28;20046;-89
2022/06/17 02:39:30;;;;;;;13.30;9.05;;;15.40;99.90;;;;;;5090036;28;20344;-89
2022/06/17 02:42:01;;;;;;;12.40;9.70;;;15.40;99.90;;;;;;5091666;28;20043;-90
2022/06/17 02:47:58;;;;;;;11.80;9.48;;;15.30;99.90;;;;;;5090652;28;20047;-88
2022/06/17 02:50:32;;;;;;;13.10;9.45;;;15.30;99.90;;;;;;5106257;28;20122;-89
2022/06/17 02:53:19;;;;;;;12.07;9.65;;;15.30;99.90;;;;;;5088896;28;20056;-89
2022/06/17 03:02:57;;;;;;;10.82;9.32;;;15.30;99.90;;;;;;5104942;28;20040;-89
2022/06/17 03:05:26;;;;;;;12.70;10.05;;;15.30;99.90;;;;;;5088629;28;20043;-89
2022/06/17 03:08:11;;;;;;;12.95;9.82;;;15.40;99.90;;;;;;5114871;28;20499;-89
2022/06/17 03:10:41;;;;;;;13.75;9.40;;;15.40;99.90;;;;;;5089192;28;20118;-89
2022/06/17 03:13:56;;;;;;;12.60;9.93;;;15.40;99.90;;;;;;5088590;28;20066;-89
2022/06/17 03:16:26;;;;;;;12.52;10.20;;;15.40;99.90;;;;;;5059490;28;20460;-88
2022/06/17 03:18:55;;;;;;;15.63;9.93;;;15.40;99.90;;;;;;5090740;28;20039;-90
2022/06/17 03:21:51;;;;;;;12.32;9.63;;;15.40;99.90;;;;;;5090228;28;20052;-90
2022/06/17 03:24:43;;;;;;;10.75;9.32;;;15.40;99.90;;;;;;5109097;27;20101;-88
2022/06/17 03:27:32;;;;;;;11.93;9.93;;;15.40;99.90;;;;;;5104809;27;20075;-89
2022/06/17 03:30:08;;;;;;;10.90;8.65;;;15.40;99.90;;;;;;5093532;27;20118;-89
2022/06/17 03:32:49;;;;;;;11.82;9.65;;;15.40;99.90;;;;;;5111640;27;20150;-89
2022/06/17 03:35:31;;;;;;;12.35;10.52;;;15.40;99.90;;;;;;5092985;27;20478;-89
2022/06/17 03:38:25;;;;;;;13.60;9.45;;;15.40;99.90;;;;;;5093976;27;21479;-89
2022/06/17 03:41:11;;;;;;;12.07;9.98;;;15.40;99.90;;;;;;5111249;27;20051;-89
2022/06/17 03:47:30;;;;;;;13.35;10.25;;;15.40;99.90;;;;;;5098180;28;20067;-90
2022/06/17 03:50:05;;;;;;;11.68;9.85;;;15.30;99.90;;;;;;5088986;27;20502;-90
2022/06/17 03:53:42;;;;;;;13.30;10.13;;;15.30;99.90;;;;;;5106930;27;20044;-88
2022/06/17 03:56:24;;;;;;;11.07;9.98;;;15.30;99.90;;;;;;5113426;27;20061;-90
2022/06/17 03:59:22;;;;;;;11.65;10.30;;;15.30;99.90;;;;;;5132689;27;20032;-90
2022/06/17 04:06:34;;;;;;;13.82;9.77;;;15.40;99.90;;;;;;5127445;27;20153;-89
2022/06/17 04:09:10;;;;;;;16.73;11.35;;;15.40;99.90;;;;;;5074609;27;20046;-89
2022/06/17 04:11:57;;;;;;;12.00;10.55;;;15.40;99.90;;;;;;5092082;27;20039;-89
2022/06/17 04:15:08;;;;;;;12.65;10.57;;;15.40;99.90;;;;;;5092672;27;20039;-89
2022/06/17 04:17:46;;;;;;;15.23;10.73;;;15.50;99.90;;;;;;5109068;28;20034;-90
2022/06/17 04:20:46;;;;;;;13.68;10.52;;;15.50;99.90;;;;;;5097694;28;20035;-89
2022/06/17 04:23:47;;;;;;;13.02;10.65;;;15.50;99.90;;;;;;5090294;28;20044;-90
2022/06/17 04:26:36;;;;;;;12.85;10.35;;;15.50;99.90;;;;;;5097666;28;20044;-89
2022/06/17 04:32:29;;;;;;;12.48;10.23;;;15.50;99.90;;;;;;5089287;28;20043;-89
2022/06/17 04:35:15;;;;;;;13.20;10.30;;;15.60;99.90;;;;;;5092011;28;20035;-89
2022/06/17 04:40:56;;;;;;;12.73;9.95;;;15.60;99.90;;;;;;5093298;28;20506;-90
2022/06/17 04:43:33;;;;;;;11.80;9.65;;;15.70;99.90;;;;;;5103910;28;20023;-89
2022/06/17 04:50:07;;;;;;;10.45;9.27;;;15.70;99.90;;;;;;5116999;28;20023;-88
2022/06/17 04:52:47;;;;;;;13.90;9.73;;;15.80;99.90;;;;;;5109130;28;20039;-89
2022/06/17 04:55:28;;;;;;;13.60;9.27;;;15.80;99.90;;;;;;5110014;28;20079;-89
2022/06/17 04:57:57;;;;;;;10.77;9.23;;;15.90;99.90;;;;;;5093236;28;20727;-90
2022/06/17 05:00:51;;;;;;;12.45;9.68;;;15.90;99.90;;;;;;5064458;28;20740;-89
2022/06/17 05:03:46;;;;;;;11.20;9.90;;;16.00;99.90;;;;;;5063277;28;20127;-89
2022/06/17 05:06:20;;;;;;;10.57;9.23;;;16.10;99.90;;;;;;5052019;28;20036;-90
2022/06/17 05:08:53;;;;;;;10.52;9.35;;;16.10;99.90;;;;;;5064262;28;20054;-89
2022/06/17 05:11:48;;;;;;;11.00;9.30;;;16.20;99.90;;;;;;5060544;28;20053;-89
2022/06/17 05:14:46;;;;;;;12.50;9.13;;;16.20;99.90;;;;;;5066875;28;20040;-90
2022/06/17 05:17:12;;;;;;;13.50;9.40;;;16.30;99.90;;;;;;5069602;28;20052;-90
2022/06/17 05:19:38;;;;;;;12.18;9.48;;;16.30;99.90;;;;;;5051391;28;20051;-89
2022/06/17 05:26:15;;;;;;;12.05;9.80;;;16.40;99.90;;;;;;5065840;28;20068;-90
2022/06/17 05:29:01;;;;;;;15.20;9.85;;;16.40;99.90;;;;;;5049157;28;20119;-89
2022/06/17 05:35:18;;;;;;;13.20;9.50;;;16.50;99.90;;;;;;5100336;28;20162;-88
2022/06/17 05:38:05;;;;;;;14.38;9.23;;;16.50;99.90;;;;;;5082724;28;20494;-88
2022/06/17 05:40:41;;;;;;;11.35;9.63;;;16.60;99.90;;;;;;5101713;28;20040;-88
2022/06/17 05:43:54;;;;;;;14.82;9.95;;;16.60;99.90;;;;;;5098605;28;20044;-87
2022/06/17 05:46:50;;;;;;;12.10;9.30;;;16.60;99.90;;;;;;5105624;28;20051;-86
2022/06/17 05:49:25;;;;;;;11.57;9.50;;;16.60;99.90;;;;;;5104006;28;20039;-89
2022/06/17 05:52:04;;;;;;;13.70;9.80;;;16.70;99.90;;;;;;5089096;28;20042;-87
2022/06/17 05:54:39;;;;;;;11.73;9.70;;;16.80;99.90;;;;;;5084502;28;20040;-87
2022/06/17 05:57:10;;;;;;;14.07;9.98;;;16.80;99.90;;;;;;5085905;28;20040;-88
2022/06/17 05:59:54;;;;;;;11.05;10.02;;;16.90;99.90;;;;;;5098065;28;20083;-88
2022/06/17 06:02:33;;;;;;;11.70;10.05;;;16.90;99.90;;;;;;5106302;28;20042;-88
2022/06/17 06:08:13;;;;;;;12.35;10.25;;;17.10;99.90;;;;;;5104694;28;20169;-88
2022/06/17 06:10:56;;;;;;;13.40;10.60;;;17.10;99.90;;;;;;5078504;28;20070;-87
2022/06/17 06:13:28;;;;;;;12.20;10.30;;;17.20;99.90;;;;;;5106783;28;20083;-88
2022/06/17 06:19:46;;;;;;;12.32;9.93;;;17.50;99.90;;;;;;5052661;28;20036;-87
2022/06/17 06:22:20;;;;;;;12.18;10.38;;;17.50;99.90;;;;;;5103765;28;20047;-88
2022/06/17 06:24:59;;;;;;;13.98;11.20;;;17.60;99.90;;;;;;5106640;28;20044;-88
2022/06/17 06:27:37;;;;;;;12.75;10.68;;;17.70;99.90;;;;;;5088634;28;20093;-88
2022/06/17 06:30:47;;;;;;;14.10;11.50;;;17.80;99.90;;;;;;5103962;28;20543;-89
2022/06/17 06:34:10;;;;;;;14.77;10.40;;;17.90;99.90;;;;;;5087167;28;20482;-89
2022/06/17 06:36:57;;;;;;;12.00;10.18;;;18.00;99.90;;;;;;5091805;28;20058;-88
2022/06/17 06:39:45;;;;;;;12.85;10.05;;;18.20;99.90;;;;;;5072765;28;20059;-89
2022/06/17 06:42:20;;;;;;;14.70;10.70;;;18.30;99.90;;;;;;5103055;28;21324;-88
2022/06/17 06:45:36;;;;;;;12.03;10.17;;;18.50;99.90;;;;;;5100770;28;20579;-88
2022/06/17 06:48:13;;;;;;;11.65;9.07;;;18.70;99.90;;;;;;5093417;28;20352;-89
2022/06/17 06:50:56;;;;;;;12.25;9.00;;;18.80;99.90;;;;;;5084959;28;20047;-87
2022/06/17 06:53:39;;;;;;;19.63;8.90;;;18.90;99.90;;;;;;5087569;28;20556;-89
2022/06/17 07:00:13;;;;;;;11.15;9.02;;;19.00;99.90;;;;;;5103418;28;20437;-86
2022/06/17 07:02:39;;;;;;;11.35;8.32;;;19.00;99.90;;;;;;5079157;28;20055;-89
2022/06/17 07:05:08;;;;;;;12.05;7.97;;;19.10;99.90;;;;;;5087627;28;20032;-88
2022/06/17 07:07:49;;;;;;;11.45;8.10;;;19.20;99.90;;;;;;5085655;28;20101;-87
2022/06/17 07:10:27;;;;;;;9.45;8.25;;;19.40;99.90;;;;;;5082184;28;20127;-86
2022/06/17 07:13:00;;;;;;;9.48;7.53;;;19.50;99.90;;;;;;5086906;28;20039;-87
2022/06/17 07:16:15;;;;;;;12.52;8.30;;;19.60;99.90;;;;;;5086645;28;20051;-87
2022/06/17 07:19:03;;;;;;;10.07;7.00;;;19.70;99.90;;;;;;5083395;28;20058;-89
2022/06/17 07:21:38;;;;;;;10.60;7.10;;;19.80;99.90;;;;;;5085390;28;20039;-88
2022/06/17 07:24:16;;;;;;;8.85;7.07;;;19.80;99.90;;;;;;5109486;27;20050;-87
2022/06/17 07:27:31;;;;;;;9.52;6.90;;;19.90;99.90;;;;;;5075259;27;20471;-88
2022/06/17 07:30:36;;;;;;;8.73;6.47;;;20.00;99.90;;;;;;5085030;27;20058;-88
2022/06/17 07:33:12;;;;;;;8.23;6.60;;;20.10;99.90;;;;;;5087487;27;20202;-90
2022/06/17 07:35:45;;;;;;;10.50;6.60;;;20.30;99.90;;;;;;5109343;27;20047;-85
2022/06/17 07:41:25;;;;;;;10.23;6.32;;;20.70;99.90;;;;;;5104040;27;20048;-87
2022/06/17 07:43:54;;;;;;;5.80;4.93;;;20.80;99.90;;;;;;5101201;27;20046;-88
2022/06/17 07:46:43;;;;;;;9.88;6.07;;;21.00;99.90;;;;;;5100530;27;20104;-85
2022/06/17 07:49:12;;;;;;;7.80;5.72;;;21.10;99.90;;;;;;5101523;27;20046;-84
2022/06/17 07:52:06;;;;;;;9.25;5.50;;;21.10;99.90;;;;;;5083262;28;20519;-84
2022/06/17 07:54:45;;;;;;;6.18;5.43;;;21.10;99.90;;;;;;5100122;28;20074;-83
2022/06/17 07:57:17;;;;;;;6.45;5.07;;;21.10;99.90;;;;;;5099765;27;20496;-83
2022/06/17 07:59:54;;;;;;;9.60;5.63;;;21.10;99.90;;;;;;5080439;27;20061;-83
2022/06/17 08:02:20;;;;;;;8.48;5.65;;;21.30;99.90;;;;;;5085115;27;20114;-82
2022/06/17 08:04:52;;;;;;;7.57;5.18;;;21.50;99.90;;;;;;5100542;27;20118;-82
2022/06/17 08:07:29;;;;;;;7.43;4.95;;;21.70;99.90;;;;;;5100704;27;20031;-85
2022/06/17 08:09:58;;;;;;;8.60;5.53;;;21.80;99.90;;;;;;5083136;27;20032;-83
2022/06/17 08:12:23;;;;;;;7.53;5.32;;;21.90;99.90;;;;;;5085430;27;20368;-85
2022/06/17 08:15:01;;;;;;;8.18;5.45;;;21.90;99.90;;;;;;5082659;27;20100;-84
2022/06/17 08:17:35;;;;;;;12.18;5.13;;;21.90;99.90;;;;;;5100187;27;20050;-82
2022/06/17 08:20:09;;;;;;;7.60;4.97;;;22.00;99.70;;;;;;5098795;28;20460;-83
2022/06/17 08:22:42;;;;;;;8.02;5.45;;;22.00;99.60;;;;;;5083873;27;20562;-84
2022/06/17 08:25:22;;;;;;;9.25;5.13;;;22.00;99.50;;;;;;5087445;28;20038;-84
2022/06/17 08:27:53;;;;;;;9.00;5.80;;;22.30;98.90;;;;;;5101504;28;20122;-85
2022/06/17 08:30:25;;;;;;;8.65;4.93;;;22.50;98.60;;;;;;5082857;28;20111;-85
2022/06/17 08:33:03;;;;;;;8.30;4.80;;;22.70;99.00;;;;;;5083517;28;20043;-86
2022/06/17 08:39:01;;;;;;;7.57;5.05;;;23.30;97.80;;;;;;5093483;28;20035;-85
2022/06/17 08:41:46;;;;;;;7.97;4.80;;;23.30;97.80;;;;;;5101247;28;20035;-84
2022/06/17 08:47:54;;;;;;;9.93;5.05;;;23.20;96.80;;;;;;5093836;28;20503;-85
2022/06/17 08:50:57;;;;;;;7.28;4.43;;;23.10;96.40;;;;;;5047753;28;20053;-84
2022/06/17 08:53:54;;;;;;;8.48;4.28;;;23.00;96.90;;;;;;5086011;28;20078;-88
2022/06/17 08:56:52;;;;;;;;;;;23.00;97.50;;;;;;5085208;28;20047;-87
2022/06/17 09:00:05;;;;;;;9.70;4.35;;;23.20;97.60;;;;;;5037813;28;19968;-93
2022/06/17 09:03:08;;;;;;;7.25;3.65;;;23.30;96.30;;;;;;5084983;28;20583;-92
2022/06/17 09:09:12;;;;;;;6.85;4.00;;;23.80;95.80;;;;;;5069523;28;20043;-86
2022/06/17 09:19:02;;;;;;;9.60;4.18;;;24.80;94.90;;;;;;5104673;27;20124;-91
2022/06/17 09:22:09;;;;;;;7.35;3.80;;;25.00;93.50;;;;;;5104450;27;20537;-85
2022/06/17 09:24:43;;;;;;;6.00;3.40;;;25.10;92.40;;;;;;5089894;27;20483;-85
2022/06/17 09:28:35;;;;;;;7.18;3.72;;;25.30;93.30;;;;;;5106382;27;20074;-86
2022/06/17 09:34:32;;;;;;;11.88;3.72;;;25.40;92.40;;;;;;5106378;27;20495;-83
2022/06/17 09:37:03;;;;;;;6.95;3.65;;;25.50;92.10;;;;;;5088239;27;20203;-85
2022/06/17 09:39:52;;;;;;;5.57;3.50;;;25.70;90.70;;;;;;5106469;27;20043;-85
2022/06/17 09:42:54;;;;;;;6.35;3.65;;;25.70;90.60;;;;;;5086332;27;20449;-83
2022/06/17 09:45:38;;;;;;;8.98;3.83;;;25.60;90.80;;;;;;5013400;28;20045;-84
2022/06/17 09:48:19;;;;;;;9.68;3.65;;;25.60;90.00;;;;;;5108858;27;20042;-84
2022/06/17 09:51:41;;;;;;;7.20;3.53;;;25.60;89.80;;;;;;5088423;27;20058;-82
2022/06/17 09:54:58;;;;;;;8.02;3.70;;;25.70;89.60;;;;;;5116133;27;20044;-83
2022/06/17 09:58:00;;;;;;;4.10;3.22;;;25.70;88.80;;;;;;5058201;28;20577;-82
2022/06/17 10:03:59;;;;;;;7.03;3.05;;;25.60;88.90;;;;;;5098395;28;20731;-83
2022/06/17 10:07:15;;;;;;;7.22;3.05;;;25.60;85.40;;;;;;5029314;28;20045;-83
2022/06/17 10:10:35;;;;;;;7.22;3.25;;;25.50;86.70;;;;;;5105059;28;20051;-84
2022/06/17 10:20:56;;;;;;;5.25;3.40;;;25.60;87.10;;;;;;5064239;28;20125;-82
2022/06/17 10:24:08;;;;;;;6.50;3.20;;;25.50;86.70;;;;;;5070798;28;20083;-82
2022/06/17 10:27:25;;;;;;;7.00;4.18;;;25.50;87.50;;;;;;5069199;28;20052;-83
2022/06/17 10:33:01;;;;;;;6.43;4.00;;;25.60;87.10;;;;;;5101772;28;20058;-84
2022/06/17 10:35:41;;;;;;;6.38;4.03;;;25.70;87.70;;;;;;5083131;28;20404;-84
2022/06/17 10:39:01;;;;;;;8.25;3.60;;;25.70;86.80;;;;;;5082086;28;20055;-84
2022/06/17 10:41:30;;;;;;;8.73;4.30;;;25.80;87.50;;;;;;5030624;28;20089;-85
2022/06/17 10:44:03;;;;;;;6.45;4.10;;;25.80;86.90;;;;;;5085742;28;20476;-85
2022/06/17 10:47:12;;;;;;;8.15;3.70;;;25.80;87.40;;;;;;5085204;28;20047;-83
2022/06/17 10:50:13;;;;;;;5.97;2.70;;;26.00;86.50;;;;;;5084378;28;20062;-84
2022/06/17 10:53:07;;;;;;;7.05;2.95;;;26.00;85.20;;;;;;5084514;28;20043;-84
2022/06/17 10:56:18;;;;;;;7.55;3.50;;;26.10;84.60;;;;;;5099152;28;20035;-83
2022/06/17 11:02:51;;;;;;;5.53;3.53;;;26.40;85.00;;;;;;5059827;28;20055;-84
2022/06/17 11:05:33;;;;;;;7.10;3.28;;;26.40;84.60;;;;;;5037958;28;20098;-84
2022/06/17 11:08:24;;;;;;;4.90;3.20;;;26.40;84.50;;;;;;5062495;28;20119;-85
2022/06/17 11:10:57;;;;;;;5.70;3.17;;;26.40;83.00;;;;;;5050468;28;20037;-84
2022/06/17 11:13:48;;;;;;;4.95;3.03;;;26.50;82.20;;;;;;5039500;28;20052;-84
2022/06/17 11:16:44;;;;;;;5.63;3.20;;;26.40;82.40;;;;;;5054555;28;20516;-83
2022/06/17 11:19:24;;;;;;;4.90;3.10;;;26.40;81.50;;;;;;5057834;28;20044;-83
2022/06/17 11:22:01;;;;;;;4.70;2.83;;;26.40;81.10;;;;;;5048772;28;20041;-86
2022/06/17 11:24:43;;;;;;;7.30;3.25;;;26.50;81.40;;;;;;5042108;28;20032;-85
2022/06/17 11:27:27;;;;;;;5.50;2.85;;;26.50;81.30;;;;;;5031561;28;20037;-85
2022/06/17 11:30:24;;;;;;;4.95;3.15;;;26.60;82.50;;;;;;5032290;28;20040;-86
2022/06/17 11:33:20;;;;;;;11.18;3.53;;;26.70;81.40;;;;;;5057530;28;20452;-82
2022/06/17 11:36:04;;;;;;;6.40;3.58;;;26.70;79.60;;;;;;5079127;28;20048;-82
2022/06/17 11:38:43;;;;;;;5.53;3.40;;;26.70;81.60;;;;;;5082291;28;20038;-84
2022/06/17 11:41:44;;;;;;;8.52;2.90;;;26.80;82.60;;;;;;5081237;28;20052;-83
2022/06/17 11:47:35;;;;;;;6.45;3.92;;;27.20;78.80;;;;;;5087560;28;20098;-84
2022/06/17 11:50:42;;;;;;;7.65;2.95;;;27.30;80.40;;;;;;5081186;28;20113;-84
2022/06/17 11:53:20;;;;;;;8.40;3.80;;;27.40;80.40;;;;;;5099093;28;20042;-84
2022/06/17 11:56:34;;;;;;;5.65;2.95;;;27.50;79.90;;;;;;5097855;28;20472;-82
2022/06/17 11:59:26;;;;;;;4.50;3.20;;;27.60;79.90;;;;;;5038994;28;20049;-80
2022/06/17 12:02:03;;;;;;;7.28;3.40;;;27.60;78.90;;;;;;5036403;28;20064;-81
2022/06/17 12:04:59;;;;;;;4.35;2.80;;;27.80;80.00;;;;;;5034802;28;20033;-81
2022/06/17 12:08:09;;;;;;;7.50;3.55;;;27.90;76.50;;;;;;5041182;28;20532;-84
2022/06/17 12:10:57;;;;;;;4.50;2.90;;;28.10;74.60;;;;;;5040430;28;20515;-85
2022/06/17 12:13:44;;;;;;;4.13;2.72;;;28.10;76.30;;;;;;5040167;28;20040;-83
2022/06/17 12:23:13;;;;;;;;;;;;;;;;;;;;;
2022/06/17 12:25:44;;;;;;;6.15;3.13;;;28.40;73.80;;;;;;5045283;28;20570;-82
2022/06/17 12:29:12;;;;;;;5.57;3.00;;;28.40;74.70;;;;;;5032759;28;20063;-83
2022/06/17 12:35:22;;;;;;;6.82;3.20;;;28.70;75.70;;;;;;5013671;28;20103;-81
2022/06/17 12:38:11;;;;;;;6.50;2.70;;;29.00;73.00;;;;;;5076708;28;20044;-83
2022/06/17 12:40:54;;;;;;;6.32;2.78;;;29.20;74.50;;;;;;5043731;28;20041;-80
2022/06/17 12:43:50;;;;;;;7.45;3.65;;;29.40;74.70;;;;;;5074409;28;20043;-81
2022/06/17 12:46:42;;;;;;;7.38;3.08;;;29.80;71.20;;;;;;5070006;28;20036;-81
2022/06/17 12:56:00;;;;;;;5.38;3.60;;;30.50;71.00;;;;;;5062251;28;20047;-81
2022/06/17 12:58:52;;;;;;;7.43;3.55;;;30.50;67.50;;;;;;5062832;28;20512;-84
2022/06/17 13:01:49;;;;;;;5.18;3.20;;;30.30;67.80;;;;;;5054675;28;20052;-84
2022/06/17 13:04:22;;;;;;;6.43;3.17;;;30.10;67.00;;;;;;5065396;28;20059;-81
2022/06/17 13:07:30;;;;;;;4.53;2.83;;;29.90;68.00;;;;;;5064599;28;20032;-83
2022/06/17 13:13:07;;;;;;;5.75;2.97;;;29.70;69.60;;;;;;5102668;28;19931;-85
2022/06/17 13:15:57;;;;;;;6.53;2.92;;;29.70;67.40;;;;;;5089029;28;20057;-82
2022/06/17 13:18:49;;;;;;;6.93;3.03;;;29.80;65.70;;;;;;5082873;28;20071;-80
2022/06/17 13:21:30;;;;;;;8.85;2.95;;;29.80;66.00;;;;;;5097431;28;20496;-79
2022/06/17 13:24:26;;;;;;;8.23;2.80;;;30.00;66.80;;;;;;5082260;28;20051;-81
2022/06/17 13:27:01;;;;;;;6.20;3.10;;;30.40;67.40;;;;;;5083221;28;20126;-81
2022/06/17 13:30:03;;;;;;;4.43;2.60;;;30.70;66.40;;;;;;5083625;28;20085;-83
2022/06/17 13:32:36;;;;;;;4.47;2.35;;;31.00;64.20;;;;;;5093705;28;20593;-83
2022/06/17 13:35:17;;;;;;;5.45;2.55;;;31.00;63.90;;;;;;5090078;28;20044;-84
2022/06/17 13:37:52;;;;;;;5.95;2.80;;;31.10;64.00;;;;;;5089513;28;20565;-83
2022/06/17 13:40:47;;;;;;;4.60;2.65;;;31.40;62.90;;;;;;5107363;27;20115;-83
2022/06/17 13:43:21;;;;;;;5.90;2.88;;;31.40;62.10;;;;;;5075200;28;20388;-85
2022/06/17 13:46:01;;;;;;;4.32;2.75;;;31.60;61.40;;;;;;5090025;28;20031;-89
2022/06/17 13:48:54;;;;;;;5.07;2.78;;;31.60;61.80;;;;;;5089674;28;20452;-80
2022/06/17 13:52:00;;;;;;;6.78;2.40;;;31.60;61.50;;;;;;5089025;28;20132;-80
2022/06/17 13:55:03;;;;;;;5.05;2.33;;;31.50;62.00;;;;;;5061339;28;20055;-80
2022/06/17 13:58:05;;;;;;;8.88;2.85;;;31.50;60.10;;;;;;5102141;28;20031;-81
2022/06/17 14:00:53;;;;;;;4.55;2.20;;;31.40;61.00;;;;;;5039478;28;20047;-80
2022/06/17 14:03:23;;;;;;;3.53;2.33;;;31.30;60.30;;;;;;5099067;28;20044;-82
2022/06/17 14:06:10;;;;;;;7.50;3.00;;;31.20;62.00;;;;;;5104967;28;20039;-84
2022/06/17 14:09:39;;;;;;;5.10;2.40;;;31.20;59.30;;;;;;5105422;28;20079;-82
2022/06/17 14:12:44;;;;;;;4.90;2.55;;;31.00;60.10;;;;;;5014025;28;20168;-86
2022/06/17 14:15:20;;;;;;;5.95;2.50;;;30.80;60.60;;;;;;5026136;28;20045;-83
2022/06/17 14:17:53;;;;;;;3.40;2.40;;;30.70;59.60;;;;;;5011328;28;20521;-82
2022/06/17 14:20:43;;;;;;;4.45;2.30;;;30.70;59.50;;;;;;4994715;28;20121;-82
2022/06/17 14:23:21;;;;;;;6.93;3.20;;;30.60;61.90;;;;;;5061100;28;20118;-83
2022/06/17 14:25:59;;;;;;;6.55;3.00;;;30.80;61.30;;;;;;5091618;28;20064;-83
2022/06/17 14:28:46;;;;;;;6.75;2.35;;;31.00;59.80;;;;;;5081968;28;20039;-82
2022/06/17 14:31:24;;;;;;;8.35;3.88;;;31.20;60.10;;;;;;5107668;28;20052;-82
2022/06/17 14:33:49;;;;;;;11.25;5.45;;;31.50;59.90;;;;;;5084625;28;20132;-82
2022/06/17 14:36:55;;;;;;;13.10;4.45;;;31.70;59.30;;;;;;5089396;28;20032;-82
2022/06/17 14:39:33;;;;;;;7.50;3.10;;;32.00;59.00;;;;;;5104119;28;20043;-82
2022/06/17 14:42:27;;;;;;;8.32;3.78;;;32.40;58.50;;;;;;5088755;28;20122;-82
2022/06/17 14:45:46;;;;;;;4.47;2.25;;;32.60;57.40;;;;;;5101155;28;20050;-82
2022/06/17 14:48:22;;;;;;;8.98;2.40;;;32.70;58.40;;;;;;5100897;28;20055;-81
2022/06/17 14:51:57;;;;;;;4.40;2.28;;;32.80;56.50;;;;;;5101483;28;20130;-82
2022/06/17 14:54:18;;;;;;;6.03;2.47;;;32.60;57.60;;;;;;5093034;28;20418;-83
2022/06/17 14:56:51;;;;;;;6.18;2.40;;;32.30;57.00;;;;;;5103628;28;20053;-82
2022/06/17 14:59:42;;;;;;;5.53;2.20;;;32.00;56.90;;;;;;5087297;28;20451;-84
2022/06/17 15:02:33;;;;;;;5.72;2.45;;;31.80;57.70;;;;;;5087934;28;20047;-83
2022/06/17 15:05:34;;;;;;;5.07;1.92;;;31.60;57.80;;;;;;5085993;28;20043;-83
2022/06/17 15:08:23;;;;;;;3.28;2.17;;;31.40;57.90;;;;;;5105532;28;20607;-83
2022/06/17 15:11:38;;;;;;;4.65;2.00;;;31.60;57.30;;;;;;5080963;28;20484;-84
2022/06/17 15:14:22;;;;;;;5.40;2.30;;;31.70;59.60;;;;;;5028816;28;20095;-84
2022/06/17 15:17:03;;;;;;;4.32;2.10;;;31.60;58.50;;;;;;5089048;28;20083;-82
2022/06/17 15:19:44;;;;;;;2.60;1.90;;;31.50;58.80;;;;;;5119284;28;20047;-85
2022/06/17 15:22:31;;;;;;;3.33;1.80;;;31.30;57.20;;;;;;5099740;28;20027;-84
2022/06/17 15:25:08;;;;;;;3.95;2.05;;;31.20;56.70;;;;;;5107711;28;20046;-84
2022/06/17 15:27:59;;;;;;;7.72;2.03;;;31.00;57.80;;;;;;5088374;28;20052;-84
2022/06/17 15:30:39;;;;;;;3.47;2.10;;;31.20;58.20;;;;;;5122481;27;20704;-84
2022/06/17 15:33:51;;;;;;;2.25;1.90;;;31.40;57.10;;;;;;5084260;28;20115;-84
2022/06/17 15:36:25;;;;;;;9.52;2.15;;;31.30;58.20;;;;;;5088807;28;20043;-84
2022/06/17 15:38:58;;;;;;;6.80;2.27;;;31.20;56.50;;;;;;5102773;28;20035;-85
2022/06/17 15:41:27;;;;;;;4.00;2.00;;;31.10;56.30;;;;;;5089183;28;20544;-85
2022/06/17 15:44:14;;;;;;;6.28;2.08;;;31.10;56.40;;;;;;5080016;28;20420;-85
2022/06/17 15:46:48;;;;;;;4.93;2.20;;;31.30;56.50;;;;;;5086963;28;20035;-85
2022/06/17 15:49:22;;;;;;;3.47;1.95;;;31.40;56.10;;;;;;5086822;28;20044;-82
2022/06/17 15:52:04;;;;;;;8.60;2.33;;;31.70;56.70;;;;;;5105982;28;20055;-82
2022/06/17 15:54:30;;;;;;;5.45;2.30;;;31.90;56.10;;;;;;5105146;28;20040;-81
2022/06/17 15:57:00;;;;;;;3.17;2.03;;;32.10;56.60;;;;;;5106102;28;20092;-81
2022/06/17 15:59:30;;;;;;;2.75;1.85;;;32.40;56.50;;;;;;5085812;28;20077;-84
2022/06/17 16:02:27;;;;;;;4.75;2.22;;;32.90;56.00;;;;;;5086185;28;20097;-83
2022/06/17 16:05:56;;;;;;;4.22;2.20;;;33.40;55.00;;;;;;5078476;28;20146;-85
2022/06/17 16:08:48;;;;;;;7.60;2.40;;;33.30;52.90;;;;;;5000751;28;20045;-85
2022/06/17 16:11:35;;;;;;;6.13;2.85;;;32.80;54.70;;;;;;4997595;28;20112;-84
2022/06/17 16:14:25;;;;;;;5.18;2.40;;;32.50;54.20;;;;;;5000042;28;20184;-84
2022/06/17 16:17:30;;;;;;;10.40;2.72;;;32.30;54.60;;;;;;5067336;28;20122;-84
2022/06/17 16:20:20;;;;;;;5.15;2.35;;;32.10;55.00;;;;;;5102787;28;20044;-83
2022/06/17 16:22:50;;;;;;;8.10;2.80;;;32.50;55.50;;;;;;5086119;28;20043;-82
2022/06/17 16:25:36;;;;;;;7.47;2.50;;;33.20;55.20;;;;;;5082640;28;20097;-81
2022/06/17 16:28:46;;;;;;;4.88;2.50;;;33.70;54.90;;;;;;5087949;28;20047;-81